sensor_id;sensor_type;location;lat;lon;timestamp;P1;durP1;ratioP1;P2;durP2;ratioP2
920;SDS011;447;51.332;6.778;2023-12-22T00:00:49;2.53;;;1.67;;
920;SDS011;447;51.332;6.778;2023-12-22T00:03:17;3.90;;;1.87;;
920;SDS011;447;51.332;6.778;2023-12-22T00:05:43;3.80;;;1.70;;
920;SDS011;447;51.332;6.778;2023-12-22T00:08:10;2.97;;;1.80;;
920;SDS011;447;51.332;6.778;2023-12-22T00:10:38;4.27;;;1.53;;
920;SDS011;447;51.332;6.778;2023-12-22T00:13:04;4.40;;;1.67;;
920;SDS011;447;51.332;6.778;2023-12-22T00:15:30;3.27;;;1.70;;
920;SDS011;447;51.332;6.778;2023-12-22T00:17:59;5.23;;;1.80;;
920;SDS011;447;51.332;6.778;2023-12-22T00:20:27;3.60;;;1.80;;
920;SDS011;447;51.332;6.778;2023-12-22T00:22:53;8.93;;;1.83;;
920;SDS011;447;51.332;6.778;2023-12-22T00:25:19;5.23;;;2.03;;
920;SDS011;447;51.332;6.778;2023-12-22T00:27:45;5.27;;;2.10;;
920;SDS011;447;51.332;6.778;2023-12-22T00:30:13;2.63;;;1.30;;
920;SDS011;447;51.332;6.778;2023-12-22T00:32:44;4.23;;;1.73;;
920;SDS011;447;51.332;6.778;2023-12-22T00:35:10;3.80;;;2.20;;
920;SDS011;447;51.332;6.778;2023-12-22T00:37:38;6.73;;;2.00;;
920;SDS011;447;51.332;6.778;2023-12-22T00:40:05;4.73;;;1.70;;
920;SDS011;447;51.332;6.778;2023-12-22T00:42:33;5.53;;;1.90;;
920;SDS011;447;51.332;6.778;2023-12-22T00:45:02;3.63;;;2.13;;
920;SDS011;447;51.332;6.778;2023-12-22T00:47:28;2.73;;;1.53;;
920;SDS011;447;51.332;6.778;2023-12-22T00:49:57;7.00;;;1.57;;
920;SDS011;447;51.332;6.778;2023-12-22T00:52:23;4.67;;;1.93;;
920;SDS011;447;51.332;6.778;2023-12-22T00:54:49;4.40;;;1.90;;
920;SDS011;447;51.332;6.778;2023-12-22T00:57:17;7.37;;;1.77;;
920;SDS011;447;51.332;6.778;2023-12-22T00:59:43;10.87;;;2.33;;
920;SDS011;447;51.332;6.778;2023-12-22T01:02:16;3.63;;;1.60;;
920;SDS011;447;51.332;6.778;2023-12-22T01:04:45;6.23;;;1.90;;
920;SDS011;447;51.332;6.778;2023-12-22T01:07:12;3.43;;;1.50;;
920;SDS011;447;51.332;6.778;2023-12-22T01:09:40;5.27;;;1.70;;
920;SDS011;447;51.332;6.778;2023-12-22T01:12:12;4.83;;;1.90;;
920;SDS011;447;51.332;6.778;2023-12-22T01:14:39;4.80;;;1.80;;
920;SDS011;447;51.332;6.778;2023-12-22T01:17:05;3.47;;;1.80;;
920;SDS011;447;51.332;6.778;2023-12-22T01:19:31;5.67;;;1.87;;
920;SDS011;447;51.332;6.778;2023-12-22T01:21:57;4.90;;;2.57;;
920;SDS011;447;51.332;6.778;2023-12-22T01:24:31;5.10;;;2.03;;
920;SDS011;447;51.332;6.778;2023-12-22T01:26:59;4.77;;;1.80;;
920;SDS011;447;51.332;6.778;2023-12-22T01:29:28;5.17;;;2.40;;
920;SDS011;447;51.332;6.778;2023-12-22T01:31:58;3.40;;;1.60;;
920;SDS011;447;51.332;6.778;2023-12-22T01:34:26;4.87;;;2.00;;
920;SDS011;447;51.332;6.778;2023-12-22T01:36:52;3.80;;;1.80;;
920;SDS011;447;51.332;6.778;2023-12-22T01:39:19;7.67;;;2.40;;
920;SDS011;447;51.332;6.778;2023-12-22T01:41:47;5.93;;;2.10;;
920;SDS011;447;51.332;6.778;2023-12-22T01:44:13;4.17;;;1.80;;
920;SDS011;447;51.332;6.778;2023-12-22T01:46:39;12.50;;;3.60;;
920;SDS011;447;51.332;6.778;2023-12-22T01:49:05;5.50;;;1.80;;
920;SDS011;447;51.332;6.778;2023-12-22T01:51:34;8.30;;;2.17;;
920;SDS011;447;51.332;6.778;2023-12-22T01:54:02;5.20;;;2.10;;
920;SDS011;447;51.332;6.778;2023-12-22T01:56:35;8.33;;;2.10;;
920;SDS011;447;51.332;6.778;2023-12-22T01:59:01;3.70;;;1.70;;
920;SDS011;447;51.332;6.778;2023-12-22T02:01:28;6.57;;;1.80;;
920;SDS011;447;51.332;6.778;2023-12-22T02:03:54;4.60;;;1.80;;
920;SDS011;447;51.332;6.778;2023-12-22T02:06:24;4.40;;;1.70;;
920;SDS011;447;51.332;6.778;2023-12-22T02:08:52;4.33;;;2.00;;
920;SDS011;447;51.332;6.778;2023-12-22T02:11:19;4.33;;;2.07;;
920;SDS011;447;51.332;6.778;2023-12-22T02:13:47;7.37;;;1.80;;
920;SDS011;447;51.332;6.778;2023-12-22T02:16:36;4.93;;;1.97;;
920;SDS011;447;51.332;6.778;2023-12-22T02:22:06;4.17;;;2.47;;
920;SDS011;447;51.332;6.778;2023-12-22T02:24:37;3.40;;;1.37;;
920;SDS011;447;51.332;6.778;2023-12-22T02:27:13;2.40;;;1.47;;
920;SDS011;447;51.332;6.778;2023-12-22T02:29:54;2.30;;;1.40;;
920;SDS011;447;51.332;6.778;2023-12-22T02:32:30;3.40;;;1.70;;
920;SDS011;447;51.332;6.778;2023-12-22T02:34:59;3.10;;;1.80;;
920;SDS011;447;51.332;6.778;2023-12-22T02:37:28;3.37;;;1.50;;
920;SDS011;447;51.332;6.778;2023-12-22T02:39:56;3.50;;;1.70;;
920;SDS011;447;51.332;6.778;2023-12-22T02:42:24;2.70;;;1.50;;
920;SDS011;447;51.332;6.778;2023-12-22T02:44:58;4.43;;;1.93;;
920;SDS011;447;51.332;6.778;2023-12-22T02:47:28;6.27;;;2.07;;
920;SDS011;447;51.332;6.778;2023-12-22T02:49:54;2.33;;;1.47;;
920;SDS011;447;51.332;6.778;2023-12-22T02:52:23;2.90;;;1.67;;
920;SDS011;447;51.332;6.778;2023-12-22T02:54:49;3.60;;;1.37;;
920;SDS011;447;51.332;6.778;2023-12-22T02:57:16;3.03;;;1.70;;
920;SDS011;447;51.332;6.778;2023-12-22T02:59:42;4.40;;;2.20;;
920;SDS011;447;51.332;6.778;2023-12-22T03:02:09;3.37;;;1.50;;
920;SDS011;447;51.332;6.778;2023-12-22T03:04:35;6.33;;;2.10;;
920;SDS011;447;51.332;6.778;2023-12-22T03:07:02;4.43;;;1.80;;
920;SDS011;447;51.332;6.778;2023-12-22T03:09:29;2.93;;;1.47;;
920;SDS011;447;51.332;6.778;2023-12-22T03:11:56;3.30;;;1.50;;
920;SDS011;447;51.332;6.778;2023-12-22T03:14:30;4.00;;;1.90;;
920;SDS011;447;51.332;6.778;2023-12-22T03:17:02;3.47;;;1.70;;
920;SDS011;447;51.332;6.778;2023-12-22T03:19:31;6.00;;;2.27;;
920;SDS011;447;51.332;6.778;2023-12-22T03:21:58;3.47;;;1.80;;
920;SDS011;447;51.332;6.778;2023-12-22T03:24:29;5.10;;;2.10;;
920;SDS011;447;51.332;6.778;2023-12-22T03:26:56;5.50;;;1.80;;
920;SDS011;447;51.332;6.778;2023-12-22T03:29:25;3.43;;;1.87;;
920;SDS011;447;51.332;6.778;2023-12-22T03:31:53;4.20;;;1.93;;
920;SDS011;447;51.332;6.778;2023-12-22T03:34:24;5.30;;;1.90;;
920;SDS011;447;51.332;6.778;2023-12-22T03:36:53;5.43;;;2.00;;
920;SDS011;447;51.332;6.778;2023-12-22T03:39:21;6.87;;;2.10;;
920;SDS011;447;51.332;6.778;2023-12-22T03:41:50;9.33;;;1.97;;
920;SDS011;447;51.332;6.778;2023-12-22T03:44:21;4.40;;;2.13;;
920;SDS011;447;51.332;6.778;2023-12-22T03:46:46;2.10;;;1.67;;
920;SDS011;447;51.332;6.778;2023-12-22T03:49:14;7.03;;;2.00;;
920;SDS011;447;51.332;6.778;2023-12-22T03:51:42;2.47;;;1.50;;
920;SDS011;447;51.332;6.778;2023-12-22T03:54:11;4.50;;;1.97;;
920;SDS011;447;51.332;6.778;2023-12-22T03:56:37;4.13;;;1.70;;
920;SDS011;447;51.332;6.778;2023-12-22T03:59:05;4.03;;;1.70;;
920;SDS011;447;51.332;6.778;2023-12-22T04:01:31;4.40;;;2.03;;
920;SDS011;447;51.332;6.778;2023-12-22T04:03:57;2.73;;;1.63;;
920;SDS011;447;51.332;6.778;2023-12-22T04:06:28;5.07;;;1.93;;
920;SDS011;447;51.332;6.778;2023-12-22T04:08:54;2.47;;;1.73;;
920;SDS011;447;51.332;6.778;2023-12-22T04:11:20;2.93;;;1.90;;
920;SDS011;447;51.332;6.778;2023-12-22T04:13:46;7.43;;;2.20;;
920;SDS011;447;51.332;6.778;2023-12-22T04:16:12;6.57;;;2.50;;
920;SDS011;447;51.332;6.778;2023-12-22T04:18:39;4.27;;;1.97;;
920;SDS011;447;51.332;6.778;2023-12-22T04:21:04;4.50;;;1.80;;
920;SDS011;447;51.332;6.778;2023-12-22T04:23:33;4.57;;;2.00;;
920;SDS011;447;51.332;6.778;2023-12-22T04:26:01;8.47;;;2.43;;
920;SDS011;447;51.332;6.778;2023-12-22T04:28:27;5.90;;;2.17;;
920;SDS011;447;51.332;6.778;2023-12-22T04:30:53;5.43;;;2.03;;
920;SDS011;447;51.332;6.778;2023-12-22T04:33:21;6.63;;;2.40;;
920;SDS011;447;51.332;6.778;2023-12-22T04:35:47;5.77;;;2.23;;
920;SDS011;447;51.332;6.778;2023-12-22T04:38:13;7.77;;;2.63;;
920;SDS011;447;51.332;6.778;2023-12-22T04:40:39;6.47;;;2.40;;
920;SDS011;447;51.332;6.778;2023-12-22T04:43:05;6.70;;;2.60;;
920;SDS011;447;51.332;6.778;2023-12-22T04:45:33;7.80;;;2.67;;
920;SDS011;447;51.332;6.778;2023-12-22T04:48:02;8.07;;;2.53;;
920;SDS011;447;51.332;6.778;2023-12-22T04:50:28;7.97;;;2.37;;
920;SDS011;447;51.332;6.778;2023-12-22T04:52:54;6.30;;;2.63;;
920;SDS011;447;51.332;6.778;2023-12-22T04:55:23;8.27;;;2.77;;
920;SDS011;447;51.332;6.778;2023-12-22T04:57:49;6.50;;;2.47;;
920;SDS011;447;51.332;6.778;2023-12-22T05:00:17;7.37;;;2.57;;
920;SDS011;447;51.332;6.778;2023-12-22T05:02:44;11.83;;;3.30;;
920;SDS011;447;51.332;6.778;2023-12-22T05:05:12;10.50;;;2.90;;
920;SDS011;447;51.332;6.778;2023-12-22T05:07:41;14.10;;;4.00;;
920;SDS011;447;51.332;6.778;2023-12-22T05:10:07;6.67;;;2.57;;
920;SDS011;447;51.332;6.778;2023-12-22T05:12:33;5.60;;;2.80;;
920;SDS011;447;51.332;6.778;2023-12-22T05:15:00;6.10;;;2.83;;
920;SDS011;447;51.332;6.778;2023-12-22T05:17:25;6.83;;;2.80;;
920;SDS011;447;51.332;6.778;2023-12-22T05:19:51;5.33;;;2.63;;
920;SDS011;447;51.332;6.778;2023-12-22T05:22:17;7.97;;;3.37;;
920;SDS011;447;51.332;6.778;2023-12-22T05:24:43;6.63;;;2.67;;
920;SDS011;447;51.332;6.778;2023-12-22T05:27:09;8.90;;;2.77;;
920;SDS011;447;51.332;6.778;2023-12-22T05:29:40;7.80;;;2.80;;
920;SDS011;447;51.332;6.778;2023-12-22T05:32:06;11.07;;;3.67;;
920;SDS011;447;51.332;6.778;2023-12-22T05:34:32;5.27;;;2.37;;
920;SDS011;447;51.332;6.778;2023-12-22T05:36:59;5.23;;;2.80;;
920;SDS011;447;51.332;6.778;2023-12-22T05:39:29;5.50;;;2.83;;
920;SDS011;447;51.332;6.778;2023-12-22T05:41:57;8.57;;;3.20;;
920;SDS011;447;51.332;6.778;2023-12-22T05:44:23;10.40;;;3.37;;
920;SDS011;447;51.332;6.778;2023-12-22T05:46:49;5.00;;;2.40;;
920;SDS011;447;51.332;6.778;2023-12-22T05:49:16;7.33;;;3.37;;
920;SDS011;447;51.332;6.778;2023-12-22T05:51:41;4.27;;;2.47;;
920;SDS011;447;51.332;6.778;2023-12-22T05:54:11;9.73;;;3.00;;
920;SDS011;447;51.332;6.778;2023-12-22T05:56:39;3.27;;;2.07;;
920;SDS011;447;51.332;6.778;2023-12-22T05:59:08;5.27;;;2.50;;
920;SDS011;447;51.332;6.778;2023-12-22T06:01:33;7.00;;;2.37;;
920;SDS011;447;51.332;6.778;2023-12-22T06:04:02;5.60;;;2.60;;
920;SDS011;447;51.332;6.778;2023-12-22T06:06:30;9.20;;;2.93;;
920;SDS011;447;51.332;6.778;2023-12-22T06:08:57;4.87;;;2.40;;
920;SDS011;447;51.332;6.778;2023-12-22T06:11:22;3.17;;;2.67;;
920;SDS011;447;51.332;6.778;2023-12-22T06:13:51;8.67;;;2.50;;
920;SDS011;447;51.332;6.778;2023-12-22T06:16:17;5.10;;;3.30;;
920;SDS011;447;51.332;6.778;2023-12-22T06:18:43;6.20;;;3.00;;
920;SDS011;447;51.332;6.778;2023-12-22T06:21:12;4.50;;;2.67;;
920;SDS011;447;51.332;6.778;2023-12-22T06:23:39;5.13;;;2.47;;
920;SDS011;447;51.332;6.778;2023-12-22T06:26:08;6.20;;;3.13;;
920;SDS011;447;51.332;6.778;2023-12-22T06:28:35;4.93;;;2.83;;
920;SDS011;447;51.332;6.778;2023-12-22T06:31:03;4.30;;;2.70;;
920;SDS011;447;51.332;6.778;2023-12-22T06:33:29;7.60;;;3.00;;
920;SDS011;447;51.332;6.778;2023-12-22T06:35:55;6.03;;;2.60;;
920;SDS011;447;51.332;6.778;2023-12-22T06:38:21;8.00;;;3.10;;
920;SDS011;447;51.332;6.778;2023-12-22T06:40:47;4.73;;;2.60;;
920;SDS011;447;51.332;6.778;2023-12-22T06:43:18;7.47;;;2.90;;
920;SDS011;447;51.332;6.778;2023-12-22T06:45:44;5.17;;;3.43;;
920;SDS011;447;51.332;6.778;2023-12-22T06:48:13;5.97;;;3.00;;
920;SDS011;447;51.332;6.778;2023-12-22T06:50:41;8.90;;;2.70;;
920;SDS011;447;51.332;6.778;2023-12-22T06:53:09;8.23;;;3.00;;
920;SDS011;447;51.332;6.778;2023-12-22T06:55:36;7.73;;;2.93;;
920;SDS011;447;51.332;6.778;2023-12-22T06:58:03;8.70;;;3.50;;
920;SDS011;447;51.332;6.778;2023-12-22T07:00:29;7.47;;;2.73;;
920;SDS011;447;51.332;6.778;2023-12-22T07:02:56;7.20;;;2.90;;
920;SDS011;447;51.332;6.778;2023-12-22T07:07:48;4.67;;;2.47;;
920;SDS011;447;51.332;6.778;2023-12-22T07:10:14;4.53;;;2.30;;
920;SDS011;447;51.332;6.778;2023-12-22T07:12:41;6.23;;;2.37;;
920;SDS011;447;51.332;6.778;2023-12-22T07:15:07;5.77;;;2.60;;
920;SDS011;447;51.332;6.778;2023-12-22T07:17:34;7.47;;;2.60;;
920;SDS011;447;51.332;6.778;2023-12-22T07:20:04;9.83;;;3.33;;
920;SDS011;447;51.332;6.778;2023-12-22T07:22:31;4.30;;;2.27;;
920;SDS011;447;51.332;6.778;2023-12-22T07:24:57;8.53;;;2.80;;
920;SDS011;447;51.332;6.778;2023-12-22T07:27:23;6.17;;;2.33;;
920;SDS011;447;51.332;6.778;2023-12-22T07:29:51;8.20;;;3.03;;
920;SDS011;447;51.332;6.778;2023-12-22T07:32:19;12.33;;;2.83;;
920;SDS011;447;51.332;6.778;2023-12-22T07:34:45;4.33;;;3.20;;
920;SDS011;447;51.332;6.778;2023-12-22T07:37:17;11.60;;;3.00;;
920;SDS011;447;51.332;6.778;2023-12-22T07:39:43;8.23;;;3.23;;
920;SDS011;447;51.332;6.778;2023-12-22T07:42:12;7.37;;;2.90;;
920;SDS011;447;51.332;6.778;2023-12-22T07:44:38;6.03;;;2.40;;
920;SDS011;447;51.332;6.778;2023-12-22T07:47:06;7.30;;;2.90;;
920;SDS011;447;51.332;6.778;2023-12-22T07:49:37;6.40;;;2.90;;
920;SDS011;447;51.332;6.778;2023-12-22T07:52:03;4.03;;;2.60;;
920;SDS011;447;51.332;6.778;2023-12-22T07:54:31;10.63;;;3.10;;
920;SDS011;447;51.332;6.778;2023-12-22T07:56:57;9.70;;;3.20;;
920;SDS011;447;51.332;6.778;2023-12-22T07:59:29;6.73;;;2.67;;
920;SDS011;447;51.332;6.778;2023-12-22T08:01:55;9.73;;;3.20;;
920;SDS011;447;51.332;6.778;2023-12-22T08:04:21;6.83;;;3.77;;
920;SDS011;447;51.332;6.778;2023-12-22T08:06:48;14.00;;;3.20;;
920;SDS011;447;51.332;6.778;2023-12-22T08:09:15;8.80;;;3.67;;
920;SDS011;447;51.332;6.778;2023-12-22T08:11:43;7.97;;;2.90;;
920;SDS011;447;51.332;6.778;2023-12-22T08:14:14;8.47;;;3.10;;
920;SDS011;447;51.332;6.778;2023-12-22T08:16:42;9.93;;;3.53;;
920;SDS011;447;51.332;6.778;2023-12-22T08:19:11;10.73;;;3.70;;
920;SDS011;447;51.332;6.778;2023-12-22T08:21:42;10.90;;;3.67;;
920;SDS011;447;51.332;6.778;2023-12-22T08:24:17;12.70;;;3.30;;
920;SDS011;447;51.332;6.778;2023-12-22T08:26:43;14.43;;;3.70;;
920;SDS011;447;51.332;6.778;2023-12-22T08:29:10;14.87;;;4.13;;
920;SDS011;447;51.332;6.778;2023-12-22T08:31:39;13.87;;;4.60;;
920;SDS011;447;51.332;6.778;2023-12-22T08:34:05;13.10;;;5.00;;
920;SDS011;447;51.332;6.778;2023-12-22T08:36:31;10.33;;;4.00;;
920;SDS011;447;51.332;6.778;2023-12-22T08:39:00;17.77;;;6.23;;
920;SDS011;447;51.332;6.778;2023-12-22T08:41:26;16.37;;;4.80;;
920;SDS011;447;51.332;6.778;2023-12-22T08:43:52;16.70;;;4.80;;
920;SDS011;447;51.332;6.778;2023-12-22T08:46:21;18.17;;;4.83;;
920;SDS011;447;51.332;6.778;2023-12-22T08:48:50;17.93;;;4.40;;
920;SDS011;447;51.332;6.778;2023-12-22T08:51:16;8.90;;;4.10;;
920;SDS011;447;51.332;6.778;2023-12-22T08:53:42;20.70;;;4.70;;
920;SDS011;447;51.332;6.778;2023-12-22T08:56:09;14.87;;;4.47;;
920;SDS011;447;51.332;6.778;2023-12-22T08:58:35;12.60;;;4.93;;
920;SDS011;447;51.332;6.778;2023-12-22T09:01:04;10.57;;;5.30;;
920;SDS011;447;51.332;6.778;2023-12-22T09:03:32;24.47;;;5.43;;
920;SDS011;447;51.332;6.778;2023-12-22T09:05:59;19.27;;;5.27;;
920;SDS011;447;51.332;6.778;2023-12-22T09:08:25;10.57;;;4.03;;
920;SDS011;447;51.332;6.778;2023-12-22T09:10:54;14.53;;;4.40;;
920;SDS011;447;51.332;6.778;2023-12-22T09:13:23;16.53;;;3.70;;
920;SDS011;447;51.332;6.778;2023-12-22T09:15:50;15.80;;;4.50;;
920;SDS011;447;51.332;6.778;2023-12-22T09:18:19;13.80;;;5.07;;
920;SDS011;447;51.332;6.778;2023-12-22T09:20:45;18.93;;;5.43;;
920;SDS011;447;51.332;6.778;2023-12-22T09:23:11;11.03;;;3.97;;
920;SDS011;447;51.332;6.778;2023-12-22T09:25:37;11.60;;;4.53;;
920;SDS011;447;51.332;6.778;2023-12-22T09:28:04;14.50;;;3.87;;
920;SDS011;447;51.332;6.778;2023-12-22T09:30:34;20.17;;;4.40;;
920;SDS011;447;51.332;6.778;2023-12-22T09:33:00;11.07;;;4.23;;
920;SDS011;447;51.332;6.778;2023-12-22T09:35:29;15.90;;;4.50;;
920;SDS011;447;51.332;6.778;2023-12-22T09:37:57;14.93;;;4.80;;
920;SDS011;447;51.332;6.778;2023-12-22T09:40:24;11.83;;;4.83;;
920;SDS011;447;51.332;6.778;2023-12-22T09:42:50;10.93;;;4.40;;
920;SDS011;447;51.332;6.778;2023-12-22T09:45:20;9.53;;;3.50;;
920;SDS011;447;51.332;6.778;2023-12-22T09:47:48;11.13;;;4.10;;
920;SDS011;447;51.332;6.778;2023-12-22T09:50:15;16.73;;;4.30;;
920;SDS011;447;51.332;6.778;2023-12-22T09:52:42;17.33;;;4.70;;
920;SDS011;447;51.332;6.778;2023-12-22T09:55:15;11.70;;;3.80;;
920;SDS011;447;51.332;6.778;2023-12-22T09:57:42;12.37;;;4.10;;
920;SDS011;447;51.332;6.778;2023-12-22T10:00:10;8.97;;;4.07;;
920;SDS011;447;51.332;6.778;2023-12-22T10:02:38;17.50;;;5.10;;
920;SDS011;447;51.332;6.778;2023-12-22T10:05:05;14.20;;;4.17;;
920;SDS011;447;51.332;6.778;2023-12-22T10:07:36;10.90;;;4.20;;
920;SDS011;447;51.332;6.778;2023-12-22T10:10:04;10.10;;;4.80;;
920;SDS011;447;51.332;6.778;2023-12-22T10:12:34;9.53;;;3.50;;
920;SDS011;447;51.332;6.778;2023-12-22T10:15:01;10.30;;;4.03;;
920;SDS011;447;51.332;6.778;2023-12-22T10:17:30;16.13;;;4.10;;
920;SDS011;447;51.332;6.778;2023-12-22T10:20:02;12.43;;;4.23;;
920;SDS011;447;51.332;6.778;2023-12-22T10:22:31;6.00;;;3.07;;
920;SDS011;447;51.332;6.778;2023-12-22T10:24:57;10.20;;;4.03;;
920;SDS011;447;51.332;6.778;2023-12-22T10:27:29;11.73;;;3.30;;
920;SDS011;447;51.332;6.778;2023-12-22T10:29:59;10.53;;;3.87;;
920;SDS011;447;51.332;6.778;2023-12-22T10:32:29;10.90;;;3.70;;
920;SDS011;447;51.332;6.778;2023-12-22T10:34:55;7.23;;;3.30;;
920;SDS011;447;51.332;6.778;2023-12-22T10:37:29;8.10;;;3.07;;
920;SDS011;447;51.332;6.778;2023-12-22T10:39:55;9.83;;;3.47;;
920;SDS011;447;51.332;6.778;2023-12-22T10:42:21;7.30;;;3.60;;
920;SDS011;447;51.332;6.778;2023-12-22T10:44:48;5.60;;;2.87;;
920;SDS011;447;51.332;6.778;2023-12-22T10:47:14;8.47;;;2.73;;
920;SDS011;447;51.332;6.778;2023-12-22T10:49:42;7.30;;;2.90;;
920;SDS011;447;51.332;6.778;2023-12-22T10:52:15;6.00;;;2.60;;
920;SDS011;447;51.332;6.778;2023-12-22T10:54:47;7.77;;;2.70;;
920;SDS011;447;51.332;6.778;2023-12-22T10:57:17;4.30;;;2.40;;
920;SDS011;447;51.332;6.778;2023-12-22T10:59:47;5.67;;;2.90;;
920;SDS011;447;51.332;6.778;2023-12-22T11:02:20;6.97;;;2.80;;
920;SDS011;447;51.332;6.778;2023-12-22T11:05:03;7.73;;;2.87;;
920;SDS011;447;51.332;6.778;2023-12-22T11:07:34;5.07;;;2.73;;
920;SDS011;447;51.332;6.778;2023-12-22T11:10:05;7.90;;;2.73;;
920;SDS011;447;51.332;6.778;2023-12-22T11:12:35;4.47;;;2.43;;
920;SDS011;447;51.332;6.778;2023-12-22T11:15:03;7.00;;;2.77;;
920;SDS011;447;51.332;6.778;2023-12-22T11:17:34;3.47;;;2.40;;
920;SDS011;447;51.332;6.778;2023-12-22T11:20:12;3.07;;;2.37;;
920;SDS011;447;51.332;6.778;2023-12-22T11:22:43;4.53;;;2.03;;
920;SDS011;447;51.332;6.778;2023-12-22T11:25:12;2.60;;;2.40;;
920;SDS011;447;51.332;6.778;2023-12-22T11:27:41;4.10;;;2.50;;
920;SDS011;447;51.332;6.778;2023-12-22T11:30:10;5.07;;;2.10;;
920;SDS011;447;51.332;6.778;2023-12-22T11:32:40;5.23;;;2.40;;
920;SDS011;447;51.332;6.778;2023-12-22T11:35:09;3.77;;;2.40;;
920;SDS011;447;51.332;6.778;2023-12-22T11:37:36;5.30;;;2.77;;
920;SDS011;447;51.332;6.778;2023-12-22T11:40:06;3.20;;;2.50;;
920;SDS011;447;51.332;6.778;2023-12-22T11:42:37;3.63;;;2.50;;
920;SDS011;447;51.332;6.778;2023-12-22T11:45:13;6.03;;;2.20;;
920;SDS011;447;51.332;6.778;2023-12-22T11:47:42;12.57;;;2.83;;
920;SDS011;447;51.332;6.778;2023-12-22T11:50:11;5.43;;;2.50;;
920;SDS011;447;51.332;6.778;2023-12-22T11:52:37;5.30;;;2.10;;
920;SDS011;447;51.332;6.778;2023-12-22T11:55:07;3.90;;;2.20;;
920;SDS011;447;51.332;6.778;2023-12-22T11:57:39;5.03;;;2.40;;
920;SDS011;447;51.332;6.778;2023-12-22T12:00:54;3.47;;;2.17;;
920;SDS011;447;51.332;6.778;2023-12-22T12:03:02;2.57;;;1.90;;
920;SDS011;447;51.332;6.778;2023-12-22T12:05:34;6.40;;;2.83;;
920;SDS011;447;51.332;6.778;2023-12-22T12:08:11;8.20;;;2.03;;
920;SDS011;447;51.332;6.778;2023-12-22T12:10:50;4.80;;;2.03;;
920;SDS011;447;51.332;6.778;2023-12-22T12:13:21;2.80;;;1.90;;
920;SDS011;447;51.332;6.778;2023-12-22T12:15:53;3.10;;;2.13;;
920;SDS011;447;51.332;6.778;2023-12-22T12:18:24;4.03;;;2.73;;
920;SDS011;447;51.332;6.778;2023-12-22T12:20:55;5.23;;;2.10;;
920;SDS011;447;51.332;6.778;2023-12-22T12:23:25;2.63;;;2.43;;
920;SDS011;447;51.332;6.778;2023-12-22T12:25:54;3.73;;;2.40;;
920;SDS011;447;51.332;6.778;2023-12-22T12:28:30;2.27;;;1.87;;
920;SDS011;447;51.332;6.778;2023-12-22T12:31:00;3.67;;;2.57;;
920;SDS011;447;51.332;6.778;2023-12-22T12:33:31;9.43;;;2.57;;
920;SDS011;447;51.332;6.778;2023-12-22T12:36:00;3.03;;;2.30;;
920;SDS011;447;51.332;6.778;2023-12-22T12:41:43;4.93;;;2.10;;
920;SDS011;447;51.332;6.778;2023-12-22T12:44:12;3.63;;;2.20;;
920;SDS011;447;51.332;6.778;2023-12-22T12:46:42;6.13;;;2.83;;
920;SDS011;447;51.332;6.778;2023-12-22T12:49:11;5.37;;;2.17;;
920;SDS011;447;51.332;6.778;2023-12-22T12:51:39;2.57;;;2.37;;
920;SDS011;447;51.332;6.778;2023-12-22T12:54:11;3.70;;;2.40;;
920;SDS011;447;51.332;6.778;2023-12-22T12:56:43;4.30;;;2.17;;
920;SDS011;447;51.332;6.778;2023-12-22T12:59:10;3.50;;;2.40;;
920;SDS011;447;51.332;6.778;2023-12-22T13:01:40;2.70;;;2.00;;
920;SDS011;447;51.332;6.778;2023-12-22T13:04:10;2.40;;;2.20;;
920;SDS011;447;51.332;6.778;2023-12-22T13:09:14;5.90;;;2.27;;
920;SDS011;447;51.332;6.778;2023-12-22T13:11:41;5.10;;;2.30;;
920;SDS011;447;51.332;6.778;2023-12-22T13:14:08;4.40;;;2.00;;
920;SDS011;447;51.332;6.778;2023-12-22T13:16:38;5.63;;;2.30;;
920;SDS011;447;51.332;6.778;2023-12-22T13:19:07;4.23;;;2.77;;
920;SDS011;447;51.332;6.778;2023-12-22T13:21:33;4.07;;;2.37;;
920;SDS011;447;51.332;6.778;2023-12-22T13:26:45;3.60;;;2.30;;
920;SDS011;447;51.332;6.778;2023-12-22T13:29:24;3.13;;;2.27;;
920;SDS011;447;51.332;6.778;2023-12-22T13:31:51;3.60;;;2.40;;
920;SDS011;447;51.332;6.778;2023-12-22T13:34:22;4.57;;;2.50;;
920;SDS011;447;51.332;6.778;2023-12-22T13:36:49;2.43;;;2.23;;
920;SDS011;447;51.332;6.778;2023-12-22T13:39:15;4.67;;;2.30;;
920;SDS011;447;51.332;6.778;2023-12-22T13:41:42;5.60;;;2.17;;
920;SDS011;447;51.332;6.778;2023-12-22T13:44:14;2.87;;;2.50;;
920;SDS011;447;51.332;6.778;2023-12-22T13:46:40;3.00;;;1.87;;
920;SDS011;447;51.332;6.778;2023-12-22T13:49:08;3.40;;;2.30;;
920;SDS011;447;51.332;6.778;2023-12-22T13:51:41;2.40;;;2.20;;
920;SDS011;447;51.332;6.778;2023-12-22T13:54:11;4.13;;;2.60;;
920;SDS011;447;51.332;6.778;2023-12-22T13:56:37;9.83;;;2.50;;
920;SDS011;447;51.332;6.778;2023-12-22T13:59:07;5.70;;;2.70;;
920;SDS011;447;51.332;6.778;2023-12-22T14:01:36;3.97;;;2.40;;
920;SDS011;447;51.332;6.778;2023-12-22T14:04:05;4.70;;;2.90;;
920;SDS011;447;51.332;6.778;2023-12-22T14:06:31;2.87;;;2.53;;
920;SDS011;447;51.332;6.778;2023-12-22T14:08:59;2.37;;;2.17;;
920;SDS011;447;51.332;6.778;2023-12-22T14:11:27;3.50;;;2.37;;
920;SDS011;447;51.332;6.778;2023-12-22T14:13:53;5.10;;;2.43;;
920;SDS011;447;51.332;6.778;2023-12-22T14:16:23;3.77;;;2.77;;
920;SDS011;447;51.332;6.778;2023-12-22T14:18:52;2.97;;;2.30;;
920;SDS011;447;51.332;6.778;2023-12-22T14:21:20;2.73;;;2.30;;
920;SDS011;447;51.332;6.778;2023-12-22T14:23:48;11.10;;;2.80;;
920;SDS011;447;51.332;6.778;2023-12-22T14:26:14;5.80;;;2.73;;
920;SDS011;447;51.332;6.778;2023-12-22T14:28:41;3.60;;;2.90;;
920;SDS011;447;51.332;6.778;2023-12-22T14:31:07;3.93;;;2.10;;
920;SDS011;447;51.332;6.778;2023-12-22T14:33:35;4.57;;;2.57;;
920;SDS011;447;51.332;6.778;2023-12-22T14:36:00;2.43;;;2.13;;
920;SDS011;447;51.332;6.778;2023-12-22T14:38:31;4.20;;;2.33;;
920;SDS011;447;51.332;6.778;2023-12-22T14:40:59;6.67;;;2.53;;
920;SDS011;447;51.332;6.778;2023-12-22T14:43:25;5.13;;;2.60;;
920;SDS011;447;51.332;6.778;2023-12-22T14:45:52;4.07;;;2.40;;
920;SDS011;447;51.332;6.778;2023-12-22T14:48:19;5.93;;;2.83;;
920;SDS011;447;51.332;6.778;2023-12-22T14:50:45;4.73;;;2.80;;
920;SDS011;447;51.332;6.778;2023-12-22T14:53:11;4.73;;;2.53;;
920;SDS011;447;51.332;6.778;2023-12-22T14:55:37;4.60;;;2.73;;
920;SDS011;447;51.332;6.778;2023-12-22T14:58:03;3.70;;;2.60;;
920;SDS011;447;51.332;6.778;2023-12-22T15:00:34;5.63;;;2.93;;
920;SDS011;447;51.332;6.778;2023-12-22T15:03:00;4.00;;;2.20;;
920;SDS011;447;51.332;6.778;2023-12-22T15:05:26;6.10;;;2.30;;
920;SDS011;447;51.332;6.778;2023-12-22T15:07:55;3.93;;;2.23;;
920;SDS011;447;51.332;6.778;2023-12-22T15:10:24;4.10;;;2.70;;
920;SDS011;447;51.332;6.778;2023-12-22T15:12:52;5.73;;;2.70;;
920;SDS011;447;51.332;6.778;2023-12-22T15:15:24;3.53;;;3.07;;
920;SDS011;447;51.332;6.778;2023-12-22T15:17:50;4.97;;;2.40;;
920;SDS011;447;51.332;6.778;2023-12-22T15:20:22;4.47;;;2.37;;
920;SDS011;447;51.332;6.778;2023-12-22T15:22:49;4.03;;;2.50;;
920;SDS011;447;51.332;6.778;2023-12-22T15:25:15;3.33;;;2.40;;
920;SDS011;447;51.332;6.778;2023-12-22T15:27:48;4.40;;;2.40;;
920;SDS011;447;51.332;6.778;2023-12-22T15:30:14;7.10;;;2.80;;
920;SDS011;447;51.332;6.778;2023-12-22T15:32:43;6.37;;;2.83;;
920;SDS011;447;51.332;6.778;2023-12-22T15:35:09;5.50;;;3.90;;
920;SDS011;447;51.332;6.778;2023-12-22T15:37:36;3.60;;;2.50;;
920;SDS011;447;51.332;6.778;2023-12-22T15:40:03;3.20;;;2.10;;
920;SDS011;447;51.332;6.778;2023-12-22T15:42:34;4.37;;;2.73;;
920;SDS011;447;51.332;6.778;2023-12-22T15:45:05;4.90;;;2.40;;
920;SDS011;447;51.332;6.778;2023-12-22T15:47:34;4.23;;;2.20;;
920;SDS011;447;51.332;6.778;2023-12-22T15:50:02;8.70;;;2.60;;
920;SDS011;447;51.332;6.778;2023-12-22T15:52:30;3.07;;;2.47;;
920;SDS011;447;51.332;6.778;2023-12-22T15:54:57;3.60;;;2.57;;
920;SDS011;447;51.332;6.778;2023-12-22T15:57:24;4.57;;;2.57;;
920;SDS011;447;51.332;6.778;2023-12-22T15:59:50;3.80;;;2.60;;
920;SDS011;447;51.332;6.778;2023-12-22T16:02:18;3.03;;;2.20;;